sensor_id;sensor_type;location;lat;lon;timestamp;P1;durP1;ratioP1;P2;durP2;ratioP2
51578;SDS011;47998;53.242;6.386;2023-07-29T00:00:41;14.30;;;11.02;;
51578;SDS011;47998;53.242;6.386;2023-07-29T00:03:08;14.95;;;11.00;;
51578;SDS011;47998;53.242;6.386;2023-07-29T00:05:35;15.23;;;10.52;;
51578;SDS011;47998;53.242;6.386;2023-07-29T00:08:01;12.88;;;9.15;;
51578;SDS011;47998;53.242;6.386;2023-07-29T00:10:27;13.38;;;9.70;;
51578;SDS011;47998;53.242;6.386;2023-07-29T00:12:53;12.05;;;9.73;;
51578;SDS011;47998;53.242;6.386;2023-07-29T00:15:19;12.38;;;9.05;;
51578;SDS011;47998;53.242;6.386;2023-07-29T00:17:45;13.60;;;9.52;;
51578;SDS011;47998;53.242;6.386;2023-07-29T00:20:10;16.13;;;9.95;;
51578;SDS011;47998;53.242;6.386;2023-07-29T00:22:36;12.68;;;9.68;;
51578;SDS011;47998;53.242;6.386;2023-07-29T00:25:02;12.95;;;9.77;;
51578;SDS011;47998;53.242;6.386;2023-07-29T00:27:28;17.10;;;11.07;;
51578;SDS011;47998;53.242;6.386;2023-07-29T00:29:53;13.82;;;10.75;;
51578;SDS011;47998;53.242;6.386;2023-07-29T00:32:19;15.20;;;11.68;;
51578;SDS011;47998;53.242;6.386;2023-07-29T00:34:44;14.93;;;11.18;;
51578;SDS011;47998;53.242;6.386;2023-07-29T00:37:10;13.27;;;10.95;;
51578;SDS011;47998;53.242;6.386;2023-07-29T00:39:37;19.08;;;11.55;;
51578;SDS011;47998;53.242;6.386;2023-07-29T00:42:03;16.27;;;12.13;;
51578;SDS011;47998;53.242;6.386;2023-07-29T00:44:30;16.92;;;11.75;;
51578;SDS011;47998;53.242;6.386;2023-07-29T00:46:59;13.90;;;12.07;;
51578;SDS011;47998;53.242;6.386;2023-07-29T00:49:27;18.55;;;12.80;;
51578;SDS011;47998;53.242;6.386;2023-07-29T00:51:54;19.58;;;13.02;;
51578;SDS011;47998;53.242;6.386;2023-07-29T00:54:20;18.77;;;13.80;;
51578;SDS011;47998;53.242;6.386;2023-07-29T00:56:45;15.48;;;11.75;;
51578;SDS011;47998;53.242;6.386;2023-07-29T00:59:11;17.50;;;12.93;;
51578;SDS011;47998;53.242;6.386;2023-07-29T01:01:37;16.27;;;12.20;;
51578;SDS011;47998;53.242;6.386;2023-07-29T01:04:04;14.75;;;12.25;;
51578;SDS011;47998;53.242;6.386;2023-07-29T01:09:15;16.02;;;13.15;;
51578;SDS011;47998;53.242;6.386;2023-07-29T01:11:57;18.90;;;13.20;;
51578;SDS011;47998;53.242;6.386;2023-07-29T01:14:51;16.63;;;13.23;;
51578;SDS011;47998;53.242;6.386;2023-07-29T01:17:33;18.42;;;12.70;;
51578;SDS011;47998;53.242;6.386;2023-07-29T01:22:36;17.92;;;12.93;;
51578;SDS011;47998;53.242;6.386;2023-07-29T01:25:03;20.73;;;13.75;;
51578;SDS011;47998;53.242;6.386;2023-07-29T01:27:29;19.25;;;13.60;;
51578;SDS011;47998;53.242;6.386;2023-07-29T01:29:55;17.02;;;12.30;;
51578;SDS011;47998;53.242;6.386;2023-07-29T01:34:53;18.73;;;13.65;;
51578;SDS011;47998;53.242;6.386;2023-07-29T01:37:29;16.63;;;13.32;;
51578;SDS011;47998;53.242;6.386;2023-07-29T01:39:58;17.50;;;13.70;;
51578;SDS011;47998;53.242;6.386;2023-07-29T01:42:25;21.38;;;14.18;;
51578;SDS011;47998;53.242;6.386;2023-07-29T01:44:51;23.08;;;15.65;;
51578;SDS011;47998;53.242;6.386;2023-07-29T01:47:17;20.08;;;14.18;;
51578;SDS011;47998;53.242;6.386;2023-07-29T01:49:43;20.13;;;14.40;;
51578;SDS011;47998;53.242;6.386;2023-07-29T01:52:09;21.00;;;15.65;;
51578;SDS011;47998;53.242;6.386;2023-07-29T01:54:35;23.48;;;15.45;;
51578;SDS011;47998;53.242;6.386;2023-07-29T01:57:00;19.00;;;14.02;;
51578;SDS011;47998;53.242;6.386;2023-07-29T01:59:26;23.15;;;16.45;;
51578;SDS011;47998;53.242;6.386;2023-07-29T02:01:52;19.40;;;15.48;;
51578;SDS011;47998;53.242;6.386;2023-07-29T02:04:18;23.67;;;16.98;;
51578;SDS011;47998;53.242;6.386;2023-07-29T02:06:43;23.33;;;16.92;;
51578;SDS011;47998;53.242;6.386;2023-07-29T02:09:09;21.08;;;15.98;;
51578;SDS011;47998;53.242;6.386;2023-07-29T02:11:35;22.52;;;16.33;;
51578;SDS011;47998;53.242;6.386;2023-07-29T02:14:00;22.60;;;15.32;;
51578;SDS011;47998;53.242;6.386;2023-07-29T02:16:26;21.33;;;15.27;;
51578;SDS011;47998;53.242;6.386;2023-07-29T02:18:52;19.83;;;15.75;;
51578;SDS011;47998;53.242;6.386;2023-07-29T02:21:17;22.15;;;15.50;;
51578;SDS011;47998;53.242;6.386;2023-07-29T02:23:43;23.30;;;15.70;;
51578;SDS011;47998;53.242;6.386;2023-07-29T02:26:09;21.95;;;15.43;;
51578;SDS011;47998;53.242;6.386;2023-07-29T02:28:35;22.42;;;15.43;;
51578;SDS011;47998;53.242;6.386;2023-07-29T02:31:20;21.55;;;15.35;;
51578;SDS011;47998;53.242;6.386;2023-07-29T02:33:47;19.55;;;14.73;;
51578;SDS011;47998;53.242;6.386;2023-07-29T02:36:13;21.58;;;15.05;;
51578;SDS011;47998;53.242;6.386;2023-07-29T02:38:39;21.05;;;15.13;;
51578;SDS011;47998;53.242;6.386;2023-07-29T02:41:05;20.92;;;15.27;;
51578;SDS011;47998;53.242;6.386;2023-07-29T02:43:31;21.20;;;15.23;;
51578;SDS011;47998;53.242;6.386;2023-07-29T02:45:57;19.92;;;14.55;;
51578;SDS011;47998;53.242;6.386;2023-07-29T02:48:24;21.35;;;14.80;;
51578;SDS011;47998;53.242;6.386;2023-07-29T02:50:50;24.55;;;15.82;;
51578;SDS011;47998;53.242;6.386;2023-07-29T02:53:17;23.65;;;14.88;;
51578;SDS011;47998;53.242;6.386;2023-07-29T02:55:42;20.50;;;14.75;;
51578;SDS011;47998;53.242;6.386;2023-07-29T02:58:08;22.20;;;13.90;;
51578;SDS011;47998;53.242;6.386;2023-07-29T03:00:34;19.02;;;13.30;;
51578;SDS011;47998;53.242;6.386;2023-07-29T03:03:00;21.85;;;14.07;;
51578;SDS011;47998;53.242;6.386;2023-07-29T03:05:29;23.27;;;14.80;;
51578;SDS011;47998;53.242;6.386;2023-07-29T03:07:55;20.85;;;14.20;;
51578;SDS011;47998;53.242;6.386;2023-07-29T03:10:20;20.65;;;14.55;;
51578;SDS011;47998;53.242;6.386;2023-07-29T03:12:47;23.52;;;14.27;;
51578;SDS011;47998;53.242;6.386;2023-07-29T03:15:12;21.10;;;14.77;;
51578;SDS011;47998;53.242;6.386;2023-07-29T03:17:38;22.25;;;14.45;;
51578;SDS011;47998;53.242;6.386;2023-07-29T03:20:04;23.77;;;13.43;;
51578;SDS011;47998;53.242;6.386;2023-07-29T03:22:30;21.27;;;14.68;;
51578;SDS011;47998;53.242;6.386;2023-07-29T03:24:56;28.98;;;14.93;;
51578;SDS011;47998;53.242;6.386;2023-07-29T03:27:22;23.48;;;14.18;;
51578;SDS011;47998;53.242;6.386;2023-07-29T03:29:48;24.33;;;15.50;;
51578;SDS011;47998;53.242;6.386;2023-07-29T03:32:13;22.23;;;14.10;;
51578;SDS011;47998;53.242;6.386;2023-07-29T03:34:39;23.08;;;14.13;;
51578;SDS011;47998;53.242;6.386;2023-07-29T03:37:05;25.77;;;14.85;;
51578;SDS011;47998;53.242;6.386;2023-07-29T03:39:31;24.13;;;15.50;;
51578;SDS011;47998;53.242;6.386;2023-07-29T03:41:57;22.58;;;14.23;;
51578;SDS011;47998;53.242;6.386;2023-07-29T03:44:23;24.88;;;14.05;;
51578;SDS011;47998;53.242;6.386;2023-07-29T03:46:49;25.90;;;14.82;;
51578;SDS011;47998;53.242;6.386;2023-07-29T03:49:14;23.90;;;14.07;;
51578;SDS011;47998;53.242;6.386;2023-07-29T03:51:40;24.77;;;15.20;;
51578;SDS011;47998;53.242;6.386;2023-07-29T03:54:06;24.65;;;13.20;;
51578;SDS011;47998;53.242;6.386;2023-07-29T03:56:32;27.75;;;15.00;;
51578;SDS011;47998;53.242;6.386;2023-07-29T03:59:06;23.75;;;14.13;;
51578;SDS011;47998;53.242;6.386;2023-07-29T04:01:32;22.80;;;13.88;;
51578;SDS011;47998;53.242;6.386;2023-07-29T04:03:58;24.13;;;14.07;;
51578;SDS011;47998;53.242;6.386;2023-07-29T04:06:24;25.67;;;14.38;;
51578;SDS011;47998;53.242;6.386;2023-07-29T04:08:50;25.60;;;13.65;;
51578;SDS011;47998;53.242;6.386;2023-07-29T04:11:16;25.20;;;15.10;;
51578;SDS011;47998;53.242;6.386;2023-07-29T04:13:42;26.95;;;15.52;;
51578;SDS011;47998;53.242;6.386;2023-07-29T04:16:07;27.48;;;14.63;;
51578;SDS011;47998;53.242;6.386;2023-07-29T04:18:33;26.92;;;14.60;;
51578;SDS011;47998;53.242;6.386;2023-07-29T04:20:59;27.27;;;14.32;;
51578;SDS011;47998;53.242;6.386;2023-07-29T04:23:24;22.73;;;14.00;;
51578;SDS011;47998;53.242;6.386;2023-07-29T04:25:50;22.83;;;13.98;;
51578;SDS011;47998;53.242;6.386;2023-07-29T04:28:16;26.63;;;13.32;;
51578;SDS011;47998;53.242;6.386;2023-07-29T04:30:42;22.52;;;13.10;;
51578;SDS011;47998;53.242;6.386;2023-07-29T04:33:08;28.35;;;13.80;;
51578;SDS011;47998;53.242;6.386;2023-07-29T04:35:33;24.25;;;13.20;;
51578;SDS011;47998;53.242;6.386;2023-07-29T04:37:59;25.42;;;13.43;;
51578;SDS011;47998;53.242;6.386;2023-07-29T04:40:25;21.92;;;12.73;;
51578;SDS011;47998;53.242;6.386;2023-07-29T04:42:51;21.45;;;12.18;;
51578;SDS011;47998;53.242;6.386;2023-07-29T04:45:16;20.75;;;12.25;;
51578;SDS011;47998;53.242;6.386;2023-07-29T04:47:42;19.52;;;12.25;;
51578;SDS011;47998;53.242;6.386;2023-07-29T04:50:08;20.02;;;11.63;;
51578;SDS011;47998;53.242;6.386;2023-07-29T04:52:34;18.80;;;10.77;;
51578;SDS011;47998;53.242;6.386;2023-07-29T04:55:00;17.92;;;10.60;;
51578;SDS011;47998;53.242;6.386;2023-07-29T04:57:26;19.58;;;10.52;;
51578;SDS011;47998;53.242;6.386;2023-07-29T04:59:51;17.83;;;10.48;;
51578;SDS011;47998;53.242;6.386;2023-07-29T05:02:17;16.45;;;10.63;;
51578;SDS011;47998;53.242;6.386;2023-07-29T05:04:42;21.33;;;9.73;;
51578;SDS011;47998;53.242;6.386;2023-07-29T05:07:08;15.48;;;9.07;;
51578;SDS011;47998;53.242;6.386;2023-07-29T05:09:34;15.90;;;8.98;;
51578;SDS011;47998;53.242;6.386;2023-07-29T05:11:59;14.18;;;8.40;;
51578;SDS011;47998;53.242;6.386;2023-07-29T05:14:25;14.05;;;7.63;;
51578;SDS011;47998;53.242;6.386;2023-07-29T05:16:51;14.77;;;7.60;;
51578;SDS011;47998;53.242;6.386;2023-07-29T05:19:17;10.88;;;7.55;;
51578;SDS011;47998;53.242;6.386;2023-07-29T05:21:43;12.02;;;8.10;;
51578;SDS011;47998;53.242;6.386;2023-07-29T05:24:08;10.32;;;7.15;;
51578;SDS011;47998;53.242;6.386;2023-07-29T05:26:34;15.80;;;7.20;;
51578;SDS011;47998;53.242;6.386;2023-07-29T05:29:00;12.70;;;6.63;;
51578;SDS011;47998;53.242;6.386;2023-07-29T05:31:26;15.43;;;6.93;;
51578;SDS011;47998;53.242;6.386;2023-07-29T05:33:52;12.50;;;6.78;;
51578;SDS011;47998;53.242;6.386;2023-07-29T05:36:18;9.73;;;6.15;;
51578;SDS011;47998;53.242;6.386;2023-07-29T05:38:44;12.55;;;6.07;;
51578;SDS011;47998;53.242;6.386;2023-07-29T05:41:10;14.90;;;6.20;;
51578;SDS011;47998;53.242;6.386;2023-07-29T05:43:35;10.68;;;6.15;;
51578;SDS011;47998;53.242;6.386;2023-07-29T05:46:02;8.55;;;5.70;;
51578;SDS011;47998;53.242;6.386;2023-07-29T05:48:27;11.65;;;5.15;;
51578;SDS011;47998;53.242;6.386;2023-07-29T05:50:53;11.38;;;6.13;;
51578;SDS011;47998;53.242;6.386;2023-07-29T05:53:19;11.68;;;5.65;;
51578;SDS011;47998;53.242;6.386;2023-07-29T05:55:45;10.48;;;5.28;;
51578;SDS011;47998;53.242;6.386;2023-07-29T05:58:10;7.40;;;3.95;;
51578;SDS011;47998;53.242;6.386;2023-07-29T06:00:36;10.38;;;4.97;;
51578;SDS011;47998;53.242;6.386;2023-07-29T06:03:02;7.70;;;5.28;;
51578;SDS011;47998;53.242;6.386;2023-07-29T06:05:27;11.10;;;5.47;;
51578;SDS011;47998;53.242;6.386;2023-07-29T06:07:53;9.85;;;4.57;;
51578;SDS011;47998;53.242;6.386;2023-07-29T06:10:19;10.65;;;5.78;;
51578;SDS011;47998;53.242;6.386;2023-07-29T06:12:45;8.60;;;5.05;;
51578;SDS011;47998;53.242;6.386;2023-07-29T06:15:11;9.10;;;4.60;;
51578;SDS011;47998;53.242;6.386;2023-07-29T06:17:37;9.07;;;5.00;;
51578;SDS011;47998;53.242;6.386;2023-07-29T06:20:04;7.60;;;4.65;;
51578;SDS011;47998;53.242;6.386;2023-07-29T06:22:31;8.82;;;4.22;;
51578;SDS011;47998;53.242;6.386;2023-07-29T06:24:56;6.28;;;4.03;;
51578;SDS011;47998;53.242;6.386;2023-07-29T06:27:22;10.43;;;5.82;;
51578;SDS011;47998;53.242;6.386;2023-07-29T06:29:49;6.47;;;4.10;;
51578;SDS011;47998;53.242;6.386;2023-07-29T06:32:15;10.75;;;5.22;;
51578;SDS011;47998;53.242;6.386;2023-07-29T06:34:41;8.70;;;4.68;;
51578;SDS011;47998;53.242;6.386;2023-07-29T06:37:07;8.70;;;3.92;;
51578;SDS011;47998;53.242;6.386;2023-07-29T06:39:32;6.95;;;3.22;;
51578;SDS011;47998;53.242;6.386;2023-07-29T06:41:58;9.63;;;4.32;;
51578;SDS011;47998;53.242;6.386;2023-07-29T06:44:24;10.05;;;3.70;;
51578;SDS011;47998;53.242;6.386;2023-07-29T06:46:49;9.85;;;4.22;;
51578;SDS011;47998;53.242;6.386;2023-07-29T06:49:15;9.55;;;4.55;;
51578;SDS011;47998;53.242;6.386;2023-07-29T06:51:41;9.13;;;4.22;;
51578;SDS011;47998;53.242;6.386;2023-07-29T06:54:06;12.80;;;3.90;;
51578;SDS011;47998;53.242;6.386;2023-07-29T06:56:32;10.35;;;3.97;;
51578;SDS011;47998;53.242;6.386;2023-07-29T06:58:58;9.25;;;3.50;;
51578;SDS011;47998;53.242;6.386;2023-07-29T07:01:24;11.77;;;5.32;;
51578;SDS011;47998;53.242;6.386;2023-07-29T07:03:49;13.60;;;4.38;;
51578;SDS011;47998;53.242;6.386;2023-07-29T07:06:15;8.07;;;3.67;;
51578;SDS011;47998;53.242;6.386;2023-07-29T07:08:41;11.75;;;5.00;;
51578;SDS011;47998;53.242;6.386;2023-07-29T07:11:06;11.00;;;4.57;;
51578;SDS011;47998;53.242;6.386;2023-07-29T07:13:32;13.02;;;4.63;;
51578;SDS011;47998;53.242;6.386;2023-07-29T07:15:58;12.70;;;4.07;;
51578;SDS011;47998;53.242;6.386;2023-07-29T07:18:24;9.10;;;3.40;;
51578;SDS011;47998;53.242;6.386;2023-07-29T07:20:50;10.60;;;4.18;;
51578;SDS011;47998;53.242;6.386;2023-07-29T07:23:16;13.98;;;3.83;;
51578;SDS011;47998;53.242;6.386;2023-07-29T07:25:42;10.02;;;3.97;;
51578;SDS011;47998;53.242;6.386;2023-07-29T07:28:08;9.45;;;3.85;;
51578;SDS011;47998;53.242;6.386;2023-07-29T07:30:35;9.80;;;4.20;;
51578;SDS011;47998;53.242;6.386;2023-07-29T07:33:04;7.68;;;3.60;;
51578;SDS011;47998;53.242;6.386;2023-07-29T07:35:30;10.93;;;4.13;;
51578;SDS011;47998;53.242;6.386;2023-07-29T07:37:55;13.18;;;3.70;;
51578;SDS011;47998;53.242;6.386;2023-07-29T07:40:21;8.23;;;3.60;;
51578;SDS011;47998;53.242;6.386;2023-07-29T07:42:47;7.45;;;3.72;;
51578;SDS011;47998;53.242;6.386;2023-07-29T07:45:12;15.77;;;3.83;;
51578;SDS011;47998;53.242;6.386;2023-07-29T07:47:38;8.90;;;3.70;;
51578;SDS011;47998;53.242;6.386;2023-07-29T07:50:04;10.35;;;3.42;;
51578;SDS011;47998;53.242;6.386;2023-07-29T07:52:30;8.45;;;3.05;;
51578;SDS011;47998;53.242;6.386;2023-07-29T07:54:56;10.57;;;3.03;;
51578;SDS011;47998;53.242;6.386;2023-07-29T07:57:21;11.52;;;3.80;;
51578;SDS011;47998;53.242;6.386;2023-07-29T07:59:47;13.00;;;3.70;;
51578;SDS011;47998;53.242;6.386;2023-07-29T08:02:13;8.77;;;2.92;;
51578;SDS011;47998;53.242;6.386;2023-07-29T08:04:39;9.95;;;3.30;;
51578;SDS011;47998;53.242;6.386;2023-07-29T08:07:05;13.13;;;3.78;;
51578;SDS011;47998;53.242;6.386;2023-07-29T08:09:31;8.38;;;2.80;;
51578;SDS011;47998;53.242;6.386;2023-07-29T08:11:56;6.60;;;2.70;;
51578;SDS011;47998;53.242;6.386;2023-07-29T08:14:22;6.55;;;2.42;;
51578;SDS011;47998;53.242;6.386;2023-07-29T08:16:48;8.75;;;2.80;;
51578;SDS011;47998;53.242;6.386;2023-07-29T08:19:13;5.40;;;2.30;;
51578;SDS011;47998;53.242;6.386;2023-07-29T08:21:39;6.80;;;2.75;;
51578;SDS011;47998;53.242;6.386;2023-07-29T08:24:05;6.18;;;2.38;;
51578;SDS011;47998;53.242;6.386;2023-07-29T08:26:32;7.75;;;2.78;;
51578;SDS011;47998;53.242;6.386;2023-07-29T08:28:58;4.90;;;2.25;;
51578;SDS011;47998;53.242;6.386;2023-07-29T08:31:23;7.22;;;2.58;;
51578;SDS011;47998;53.242;6.386;2023-07-29T08:33:49;6.32;;;2.30;;
51578;SDS011;47998;53.242;6.386;2023-07-29T08:36:15;8.57;;;2.15;;
51578;SDS011;47998;53.242;6.386;2023-07-29T08:38:41;6.22;;;1.73;;
51578;SDS011;47998;53.242;6.386;2023-07-29T08:41:14;5.43;;;2.00;;
51578;SDS011;47998;53.242;6.386;2023-07-29T08:43:43;8.40;;;2.25;;
51578;SDS011;47998;53.242;6.386;2023-07-29T08:46:29;4.50;;;1.75;;
51578;SDS011;47998;53.242;6.386;2023-07-29T08:48:55;6.60;;;1.95;;
51578;SDS011;47998;53.242;6.386;2023-07-29T08:51:21;4.60;;;2.25;;
51578;SDS011;47998;53.242;6.386;2023-07-29T08:53:49;5.80;;;1.80;;
51578;SDS011;47998;53.242;6.386;2023-07-29T08:56:15;6.63;;;1.30;;
51578;SDS011;47998;53.242;6.386;2023-07-29T08:58:41;5.63;;;1.65;;
51578;SDS011;47998;53.242;6.386;2023-07-29T09:01:08;6.00;;;2.25;;
51578;SDS011;47998;53.242;6.386;2023-07-29T09:03:33;6.40;;;2.17;;
51578;SDS011;47998;53.242;6.386;2023-07-29T09:05:59;5.00;;;1.52;;
51578;SDS011;47998;53.242;6.386;2023-07-29T09:08:27;3.92;;;1.70;;
51578;SDS011;47998;53.242;6.386;2023-07-29T09:10:53;4.35;;;1.83;;
51578;SDS011;47998;53.242;6.386;2023-07-29T09:13:20;7.07;;;2.17;;
51578;SDS011;47998;53.242;6.386;2023-07-29T09:15:46;4.80;;;1.50;;
51578;SDS011;47998;53.242;6.386;2023-07-29T09:18:14;8.25;;;1.58;;
51578;SDS011;47998;53.242;6.386;2023-07-29T09:20:42;3.40;;;1.30;;
51578;SDS011;47998;53.242;6.386;2023-07-29T09:23:09;5.80;;;1.42;;
51578;SDS011;47998;53.242;6.386;2023-07-29T09:25:35;4.65;;;1.63;;
51578;SDS011;47998;53.242;6.386;2023-07-29T09:28:02;4.43;;;1.45;;
51578;SDS011;47998;53.242;6.386;2023-07-29T09:30:40;7.18;;;1.45;;
51578;SDS011;47998;53.242;6.386;2023-07-29T09:33:07;5.43;;;1.95;;
51578;SDS011;47998;53.242;6.386;2023-07-29T09:35:35;4.78;;;1.25;;
51578;SDS011;47998;53.242;6.386;2023-07-29T09:38:02;3.65;;;0.90;;
51578;SDS011;47998;53.242;6.386;2023-07-29T09:40:35;5.60;;;1.00;;
51578;SDS011;47998;53.242;6.386;2023-07-29T09:43:05;2.22;;;0.90;;
51578;SDS011;47998;53.242;6.386;2023-07-29T09:45:36;3.33;;;1.33;;
51578;SDS011;47998;53.242;6.386;2023-07-29T09:48:02;2.67;;;1.27;;
51578;SDS011;47998;53.242;6.386;2023-07-29T09:50:34;3.50;;;1.17;;
51578;SDS011;47998;53.242;6.386;2023-07-29T09:53:01;4.30;;;0.85;;
51578;SDS011;47998;53.242;6.386;2023-07-29T09:55:28;3.03;;;1.08;;
51578;SDS011;47998;53.242;6.386;2023-07-29T09:57:58;5.85;;;1.25;;
51578;SDS011;47998;53.242;6.386;2023-07-29T10:00:29;3.67;;;1.40;;
51578;SDS011;47998;53.242;6.386;2023-07-29T10:02:55;1.77;;;1.02;;
51578;SDS011;47998;53.242;6.386;2023-07-29T10:05:25;4.05;;;0.98;;
51578;SDS011;47998;53.242;6.386;2023-07-29T10:07:52;3.63;;;0.98;;
51578;SDS011;47998;53.242;6.386;2023-07-29T10:10:19;3.92;;;1.20;;
51578;SDS011;47998;53.242;6.386;2023-07-29T10:12:48;3.67;;;1.40;;
51578;SDS011;47998;53.242;6.386;2023-07-29T10:15:15;3.75;;;1.67;;
51578;SDS011;47998;53.242;6.386;2023-07-29T10:17:41;5.22;;;1.20;;
51578;SDS011;47998;53.242;6.386;2023-07-29T10:20:07;4.80;;;1.38;;
51578;SDS011;47998;53.242;6.386;2023-07-29T10:22:44;3.08;;;1.10;;
51578;SDS011;47998;53.242;6.386;2023-07-29T10:25:16;3.72;;;0.88;;
51578;SDS011;47998;53.242;6.386;2023-07-29T10:27:44;3.08;;;1.20;;
51578;SDS011;47998;53.242;6.386;2023-07-29T10:30:14;3.15;;;1.15;;
51578;SDS011;47998;53.242;6.386;2023-07-29T10:32:43;1.98;;;0.70;;
51578;SDS011;47998;53.242;6.386;2023-07-29T10:35:13;3.50;;;1.05;;
51578;SDS011;47998;53.242;6.386;2023-07-29T10:37:40;4.35;;;1.75;;
51578;SDS011;47998;53.242;6.386;2023-07-29T10:40:07;4.15;;;1.33;;
51578;SDS011;47998;53.242;6.386;2023-07-29T10:42:34;7.63;;;1.00;;
51578;SDS011;47998;53.242;6.386;2023-07-29T10:45:00;5.90;;;1.42;;
51578;SDS011;47998;53.242;6.386;2023-07-29T10:47:41;3.45;;;1.30;;
51578;SDS011;47998;53.242;6.386;2023-07-29T10:50:14;5.60;;;1.55;;
51578;SDS011;47998;53.242;6.386;2023-07-29T10:52:43;4.80;;;1.27;;
51578;SDS011;47998;53.242;6.386;2023-07-29T10:58:29;4.25;;;1.77;;
51578;SDS011;47998;53.242;6.386;2023-07-29T11:00:47;4.43;;;1.73;;
51578;SDS011;47998;53.242;6.386;2023-07-29T11:03:14;5.80;;;1.63;;
51578;SDS011;47998;53.242;6.386;2023-07-29T11:08:20;6.90;;;1.55;;
51578;SDS011;47998;53.242;6.386;2023-07-29T11:13:32;8.77;;;2.00;;
51578;SDS011;47998;53.242;6.386;2023-07-29T11:15:59;3.92;;;1.05;;
51578;SDS011;47998;53.242;6.386;2023-07-29T11:18:27;3.53;;;1.20;;
51578;SDS011;47998;53.242;6.386;2023-07-29T11:20:58;2.45;;;0.93;;
51578;SDS011;47998;53.242;6.386;2023-07-29T11:23:43;4.35;;;1.42;;
51578;SDS011;47998;53.242;6.386;2023-07-29T11:26:08;3.22;;;1.48;;
51578;SDS011;47998;53.242;6.386;2023-07-29T11:28:38;6.00;;;2.13;;
51578;SDS011;47998;53.242;6.386;2023-07-29T11:31:05;4.97;;;2.05;;
51578;SDS011;47998;53.242;6.386;2023-07-29T11:33:31;4.75;;;1.90;;
51578;SDS011;47998;53.242;6.386;2023-07-29T11:35:57;7.22;;;1.95;;
51578;SDS011;47998;53.242;6.386;2023-07-29T11:38:23;4.55;;;1.60;;
51578;SDS011;47998;53.242;6.386;2023-07-29T11:40:59;5.57;;;2.40;;
51578;SDS011;47998;53.242;6.386;2023-07-29T11:43:27;5.05;;;2.40;;
51578;SDS011;47998;53.242;6.386;2023-07-29T11:45:53;6.85;;;1.98;;
51578;SDS011;47998;53.242;6.386;2023-07-29T11:48:26;5.45;;;2.67;;
51578;SDS011;47998;53.242;6.386;2023-07-29T11:50:58;4.03;;;1.55;;
51578;SDS011;47998;53.242;6.386;2023-07-29T11:53:28;3.30;;;1.50;;
51578;SDS011;47998;53.242;6.386;2023-07-29T11:55:55;4.15;;;2.30;;
51578;SDS011;47998;53.242;6.386;2023-07-29T11:58:21;5.43;;;1.52;;
51578;SDS011;47998;53.242;6.386;2023-07-29T12:00:46;3.30;;;1.58;;
51578;SDS011;47998;53.242;6.386;2023-07-29T12:03:13;4.85;;;1.38;;
51578;SDS011;47998;53.242;6.386;2023-07-29T12:05:41;7.38;;;1.83;;
51578;SDS011;47998;53.242;6.386;2023-07-29T12:08:07;5.05;;;1.85;;
51578;SDS011;47998;53.242;6.386;2023-07-29T12:10:34;2.40;;;1.10;;
51578;SDS011;47998;53.242;6.386;2023-07-29T12:13:00;3.33;;;1.30;;
51578;SDS011;47998;53.242;6.386;2023-07-29T12:15:28;3.92;;;1.60;;
51578;SDS011;47998;53.242;6.386;2023-07-29T12:17:58;3.65;;;1.33;;
51578;SDS011;47998;53.242;6.386;2023-07-29T12:20:24;4.32;;;1.05;;
51578;SDS011;47998;53.242;6.386;2023-07-29T12:22:51;2.50;;;1.30;;
51578;SDS011;47998;53.242;6.386;2023-07-29T12:25:21;5.03;;;2.00;;
51578;SDS011;47998;53.242;6.386;2023-07-29T12:27:47;3.42;;;1.83;;
51578;SDS011;47998;53.242;6.386;2023-07-29T12:30:13;5.30;;;1.67;;
51578;SDS011;47998;53.242;6.386;2023-07-29T12:32:43;2.60;;;1.33;;
51578;SDS011;47998;53.242;6.386;2023-07-29T12:37:38;7.72;;;1.80;;
51578;SDS011;47998;53.242;6.386;2023-07-29T12:40:07;3.20;;;1.63;;
51578;SDS011;47998;53.242;6.386;2023-07-29T12:42:53;3.67;;;1.88;;
51578;SDS011;47998;53.242;6.386;2023-07-29T12:45:19;8.05;;;1.73;;
51578;SDS011;47998;53.242;6.386;2023-07-29T12:47:48;2.85;;;1.30;;
51578;SDS011;47998;53.242;6.386;2023-07-29T12:50:13;2.20;;;1.50;;
51578;SDS011;47998;53.242;6.386;2023-07-29T12:52:39;3.92;;;1.40;;
51578;SDS011;47998;53.242;6.386;2023-07-29T12:55:05;3.90;;;1.38;;
51578;SDS011;47998;53.242;6.386;2023-07-29T12:57:34;3.28;;;1.27;;
51578;SDS011;47998;53.242;6.386;2023-07-29T13:00:00;4.15;;;1.38;;
51578;SDS011;47998;53.242;6.386;2023-07-29T13:02:27;5.00;;;1.80;;
51578;SDS011;47998;53.242;6.386;2023-07-29T13:04:52;4.32;;;1.70;;
51578;SDS011;47998;53.242;6.386;2023-07-29T13:07:18;5.07;;;1.42;;
51578;SDS011;47998;53.242;6.386;2023-07-29T13:09:44;6.30;;;2.30;;
51578;SDS011;47998;53.242;6.386;2023-07-29T13:12:09;3.55;;;1.50;;
51578;SDS011;47998;53.242;6.386;2023-07-29T13:14:35;4.63;;;1.67;;
51578;SDS011;47998;53.242;6.386;2023-07-29T13:17:01;3.38;;;1.38;;
51578;SDS011;47998;53.242;6.386;2023-07-29T13:19:26;3.03;;;1.88;;
51578;SDS011;47998;53.242;6.386;2023-07-29T13:21:52;3.35;;;1.25;;
51578;SDS011;47998;53.242;6.386;2023-07-29T13:24:18;6.70;;;1.70;;
51578;SDS011;47998;53.242;6.386;2023-07-29T13:26:43;4.32;;;1.33;;
51578;SDS011;47998;53.242;6.386;2023-07-29T13:29:09;3.78;;;1.45;;
51578;SDS011;47998;53.242;6.386;2023-07-29T13:31:35;5.40;;;1.80;;
51578;SDS011;47998;53.242;6.386;2023-07-29T13:34:00;2.80;;;1.20;;
51578;SDS011;47998;53.242;6.386;2023-07-29T13:36:26;6.22;;;1.88;;
51578;SDS011;47998;53.242;6.386;2023-07-29T13:38:52;3.05;;;1.48;;
51578;SDS011;47998;53.242;6.386;2023-07-29T13:41:17;5.25;;;1.40;;
51578;SDS011;47998;53.242;6.386;2023-07-29T13:43:43;4.50;;;1.27;;
51578;SDS011;47998;53.242;6.386;2023-07-29T13:46:09;2.80;;;1.15;;
51578;SDS011;47998;53.242;6.386;2023-07-29T13:48:34;4.07;;;1.35;;
51578;SDS011;47998;53.242;6.386;2023-07-29T13:51:00;3.47;;;1.35;;
51578;SDS011;47998;53.242;6.386;2023-07-29T13:53:26;3.28;;;1.10;;
51578;SDS011;47998;53.242;6.386;2023-07-29T13:55:52;3.25;;;1.20;;
51578;SDS011;47998;53.242;6.386;2023-07-29T13:58:18;5.07;;;2.03;;
51578;SDS011;47998;53.242;6.386;2023-07-29T14:00:43;5.97;;;1.60;;
51578;SDS011;47998;53.242;6.386;2023-07-29T14:03:09;3.45;;;1.50;;
51578;SDS011;47998;53.242;6.386;2023-07-29T14:05:35;3.00;;;1.50;;
51578;SDS011;47998;53.242;6.386;2023-07-29T14:08:00;4.00;;;1.10;;
51578;SDS011;47998;53.242;6.386;2023-07-29T14:10:26;5.55;;;1.40;;
51578;SDS011;47998;53.242;6.386;2023-07-29T14:12:52;3.47;;;1.33;;
51578;SDS011;47998;53.242;6.386;2023-07-29T14:15:17;5.28;;;1.70;;
51578;SDS011;47998;53.242;6.386;2023-07-29T14:17:43;3.22;;;1.17;;
51578;SDS011;47998;53.242;6.386;2023-07-29T14:20:09;3.75;;;1.38;;
51578;SDS011;47998;53.242;6.386;2023-07-29T14:22:35;3.50;;;1.30;;
51578;SDS011;47998;53.242;6.386;2023-07-29T14:25:01;4.15;;;1.27;;
51578;SDS011;47998;53.242;6.386;2023-07-29T14:27:27;3.70;;;0.88;;
51578;SDS011;47998;53.242;6.386;2023-07-29T14:29:53;1.48;;;1.00;;
51578;SDS011;47998;53.242;6.386;2023-07-29T14:32:18;4.15;;;1.30;;
51578;SDS011;47998;53.242;6.386;2023-07-29T14:34:44;5.82;;;1.55;;
51578;SDS011;47998;53.242;6.386;2023-07-29T14:37:10;6.28;;;1.85;;
51578;SDS011;47998;53.242;6.386;2023-07-29T14:39:35;4.05;;;1.38;;
51578;SDS011;47998;53.242;6.386;2023-07-29T14:42:01;2.13;;;1.15;;
51578;SDS011;47998;53.242;6.386;2023-07-29T14:44:27;6.55;;;2.05;;
51578;SDS011;47998;53.242;6.386;2023-07-29T14:46:53;5.43;;;1.25;;
51578;SDS011;47998;53.242;6.386;2023-07-29T14:49:19;3.60;;;0.73;;
51578;SDS011;47998;53.242;6.386;2023-07-29T14:51:45;3.95;;;1.60;;
51578;SDS011;47998;53.242;6.386;2023-07-29T14:54:11;5.47;;;1.17;;